sensor_id;sensor_type;location;lat;lon;timestamp;temperature;humidity
18733;DHT22;9495;51.210;2.934;2023-02-18T00:01:23;14.00;99.90
18733;DHT22;9495;51.210;2.934;2023-02-18T00:03:52;14.30;99.90
18733;DHT22;9495;51.210;2.934;2023-02-18T00:06:21;14.20;99.90
18733;DHT22;9495;51.210;2.934;2023-02-18T00:08:51;14.20;99.90
18733;DHT22;9495;51.210;2.934;2023-02-18T00:11:20;14.40;99.90
18733;DHT22;9495;51.210;2.934;2023-02-18T00:13:49;14.30;99.90
18733;DHT22;9495;51.210;2.934;2023-02-18T00:16:20;14.30;99.90
18733;DHT22;9495;51.210;2.934;2023-02-18T00:18:49;14.10;99.90
18733;DHT22;9495;51.210;2.934;2023-02-18T00:21:18;14.50;99.90
18733;DHT22;9495;51.210;2.934;2023-02-18T00:23:46;14.60;99.90
18733;DHT22;9495;51.210;2.934;2023-02-18T00:26:16;14.50;99.90
18733;DHT22;9495;51.210;2.934;2023-02-18T00:28:45;14.50;99.90
18733;DHT22;9495;51.210;2.934;2023-02-18T00:31:17;14.20;99.90
18733;DHT22;9495;51.210;2.934;2023-02-18T00:33:47;14.20;99.90
18733;DHT22;9495;51.210;2.934;2023-02-18T00:36:17;14.00;99.90
18733;DHT22;9495;51.210;2.934;2023-02-18T00:38:46;13.70;99.90
18733;DHT22;9495;51.210;2.934;2023-02-18T00:41:15;13.80;99.90
18733;DHT22;9495;51.210;2.934;2023-02-18T00:43:43;13.60;99.90
18733;DHT22;9495;51.210;2.934;2023-02-18T00:46:12;13.60;99.90
18733;DHT22;9495;51.210;2.934;2023-02-18T00:48:41;13.60;99.90
18733;DHT22;9495;51.210;2.934;2023-02-18T00:51:11;13.80;99.90
18733;DHT22;9495;51.210;2.934;2023-02-18T00:53:40;13.90;99.90
18733;DHT22;9495;51.210;2.934;2023-02-18T00:56:08;14.10;99.90
18733;DHT22;9495;51.210;2.934;2023-02-18T00:58:37;14.00;99.90
18733;DHT22;9495;51.210;2.934;2023-02-18T01:01:07;13.90;99.90
18733;DHT22;9495;51.210;2.934;2023-02-18T01:03:36;14.00;99.90
18733;DHT22;9495;51.210;2.934;2023-02-18T01:06:06;13.80;99.90
18733;DHT22;9495;51.210;2.934;2023-02-18T01:08:37;14.00;99.90
18733;DHT22;9495;51.210;2.934;2023-02-18T01:11:07;13.80;99.90
18733;DHT22;9495;51.210;2.934;2023-02-18T01:13:36;13.60;99.90
18733;DHT22;9495;51.210;2.934;2023-02-18T01:16:04;13.70;99.90
18733;DHT22;9495;51.210;2.934;2023-02-18T01:18:33;13.60;99.90
18733;DHT22;9495;51.210;2.934;2023-02-18T01:21:02;13.40;99.90
18733;DHT22;9495;51.210;2.934;2023-02-18T01:23:31;13.50;99.90
18733;DHT22;9495;51.210;2.934;2023-02-18T01:26:00;13.60;99.90
18733;DHT22;9495;51.210;2.934;2023-02-18T01:28:29;13.40;99.90
18733;DHT22;9495;51.210;2.934;2023-02-18T01:30:57;13.40;99.90
18733;DHT22;9495;51.210;2.934;2023-02-18T01:33:26;13.50;99.90
18733;DHT22;9495;51.210;2.934;2023-02-18T01:35:54;13.40;99.90
18733;DHT22;9495;51.210;2.934;2023-02-18T01:38:23;13.40;99.90
18733;DHT22;9495;51.210;2.934;2023-02-18T01:40:51;13.70;99.90
18733;DHT22;9495;51.210;2.934;2023-02-18T01:43:22;13.50;99.90
18733;DHT22;9495;51.210;2.934;2023-02-18T01:45:59;13.50;99.90
18733;DHT22;9495;51.210;2.934;2023-02-18T01:48:33;13.30;99.90
18733;DHT22;9495;51.210;2.934;2023-02-18T01:51:10;13.60;99.90
18733;DHT22;9495;51.210;2.934;2023-02-18T01:53:44;13.60;99.90
18733;DHT22;9495;51.210;2.934;2023-02-18T01:56:17;13.30;99.90
18733;DHT22;9495;51.210;2.934;2023-02-18T01:58:49;13.10;99.90
18733;DHT22;9495;51.210;2.934;2023-02-18T02:01:18;13.20;99.90
18733;DHT22;9495;51.210;2.934;2023-02-18T02:03:47;13.00;99.90
18733;DHT22;9495;51.210;2.934;2023-02-18T02:06:17;13.10;99.90
18733;DHT22;9495;51.210;2.934;2023-02-18T02:08:46;13.20;99.90
18733;DHT22;9495;51.210;2.934;2023-02-18T02:11:24;13.30;99.90
18733;DHT22;9495;51.210;2.934;2023-02-18T02:14:21;13.60;99.90
18733;DHT22;9495;51.210;2.934;2023-02-18T02:16:57;13.60;99.90
18733;DHT22;9495;51.210;2.934;2023-02-18T02:25:51;13.50;99.90
18733;DHT22;9495;51.210;2.934;2023-02-18T02:29:16;13.40;99.90
18733;DHT22;9495;51.210;2.934;2023-02-18T02:32:20;13.40;99.90
18733;DHT22;9495;51.210;2.934;2023-02-18T02:34:57;13.40;99.90
18733;DHT22;9495;51.210;2.934;2023-02-18T02:37:32;13.50;99.90
18733;DHT22;9495;51.210;2.934;2023-02-18T02:40:17;13.60;99.90
18733;DHT22;9495;51.210;2.934;2023-02-18T02:42:57;13.70;99.90
18733;DHT22;9495;51.210;2.934;2023-02-18T02:45:37;13.90;99.90
18733;DHT22;9495;51.210;2.934;2023-02-18T02:48:16;13.60;99.90
18733;DHT22;9495;51.210;2.934;2023-02-18T02:50:53;13.70;99.90
18733;DHT22;9495;51.210;2.934;2023-02-18T02:53:25;13.80;99.90
18733;DHT22;9495;51.210;2.934;2023-02-18T02:55:54;13.90;99.90
18733;DHT22;9495;51.210;2.934;2023-02-18T02:58:23;13.80;99.90
18733;DHT22;9495;51.210;2.934;2023-02-18T03:01:05;13.60;99.90
18733;DHT22;9495;51.210;2.934;2023-02-18T03:04:01;13.50;99.90
18733;DHT22;9495;51.210;2.934;2023-02-18T03:07:06;13.40;99.90
18733;DHT22;9495;51.210;2.934;2023-02-18T03:09:46;13.60;99.90
18733;DHT22;9495;51.210;2.934;2023-02-18T03:12:22;13.60;99.90
18733;DHT22;9495;51.210;2.934;2023-02-18T03:14:59;13.60;99.90
18733;DHT22;9495;51.210;2.934;2023-02-18T03:17:34;13.50;99.90
18733;DHT22;9495;51.210;2.934;2023-02-18T03:20:07;13.20;99.90
18733;DHT22;9495;51.210;2.934;2023-02-18T03:22:42;13.30;99.90
18733;DHT22;9495;51.210;2.934;2023-02-18T03:25:12;13.40;99.90
18733;DHT22;9495;51.210;2.934;2023-02-18T03:27:43;13.50;99.90
18733;DHT22;9495;51.210;2.934;2023-02-18T03:30:16;13.30;99.90
18733;DHT22;9495;51.210;2.934;2023-02-18T03:32:49;12.90;99.90
18733;DHT22;9495;51.210;2.934;2023-02-18T03:35:19;13.10;99.90
18733;DHT22;9495;51.210;2.934;2023-02-18T03:37:52;13.10;99.90
18733;DHT22;9495;51.210;2.934;2023-02-18T03:40:21;13.10;99.90
18733;DHT22;9495;51.210;2.934;2023-02-18T03:42:50;13.70;99.90
18733;DHT22;9495;51.210;2.934;2023-02-18T03:45:18;13.30;99.90
18733;DHT22;9495;51.210;2.934;2023-02-18T03:47:47;13.20;99.90
18733;DHT22;9495;51.210;2.934;2023-02-18T03:50:15;13.50;99.90
18733;DHT22;9495;51.210;2.934;2023-02-18T03:52:44;13.60;99.90
18733;DHT22;9495;51.210;2.934;2023-02-18T03:55:14;13.20;99.90
18733;DHT22;9495;51.210;2.934;2023-02-18T03:57:42;13.60;99.90
18733;DHT22;9495;51.210;2.934;2023-02-18T04:00:11;13.50;99.90
18733;DHT22;9495;51.210;2.934;2023-02-18T04:02:41;13.50;99.90
18733;DHT22;9495;51.210;2.934;2023-02-18T04:05:09;13.50;99.90
18733;DHT22;9495;51.210;2.934;2023-02-18T04:07:38;13.00;99.90
18733;DHT22;9495;51.210;2.934;2023-02-18T04:10:07;13.00;99.90
18733;DHT22;9495;51.210;2.934;2023-02-18T04:12:37;13.40;99.90
18733;DHT22;9495;51.210;2.934;2023-02-18T04:15:05;13.50;99.90
18733;DHT22;9495;51.210;2.934;2023-02-18T04:17:34;13.40;99.90
18733;DHT22;9495;51.210;2.934;2023-02-18T04:20:03;13.20;99.90
18733;DHT22;9495;51.210;2.934;2023-02-18T04:22:31;13.10;99.90
18733;DHT22;9495;51.210;2.934;2023-02-18T04:25:00;13.30;99.90
18733;DHT22;9495;51.210;2.934;2023-02-18T04:27:28;13.30;99.90
18733;DHT22;9495;51.210;2.934;2023-02-18T04:29:58;13.60;99.90
18733;DHT22;9495;51.210;2.934;2023-02-18T04:32:27;13.40;99.90
18733;DHT22;9495;51.210;2.934;2023-02-18T04:34:55;13.60;99.90
18733;DHT22;9495;51.210;2.934;2023-02-18T04:37:24;13.60;99.90
18733;DHT22;9495;51.210;2.934;2023-02-18T04:39:52;13.40;99.90
18733;DHT22;9495;51.210;2.934;2023-02-18T04:42:21;13.40;99.90
18733;DHT22;9495;51.210;2.934;2023-02-18T04:44:50;13.50;99.90
18733;DHT22;9495;51.210;2.934;2023-02-18T04:47:19;13.40;99.90
18733;DHT22;9495;51.210;2.934;2023-02-18T04:49:48;13.50;99.90
18733;DHT22;9495;51.210;2.934;2023-02-18T04:52:17;13.30;99.90
18733;DHT22;9495;51.210;2.934;2023-02-18T04:54:45;12.90;99.90
18733;DHT22;9495;51.210;2.934;2023-02-18T04:57:13;12.90;99.90
18733;DHT22;9495;51.210;2.934;2023-02-18T04:59:43;13.00;99.90
18733;DHT22;9495;51.210;2.934;2023-02-18T05:02:11;13.00;99.90
18733;DHT22;9495;51.210;2.934;2023-02-18T05:04:41;12.80;99.90
18733;DHT22;9495;51.210;2.934;2023-02-18T05:07:09;13.00;99.90
18733;DHT22;9495;51.210;2.934;2023-02-18T05:09:37;12.90;99.90
18733;DHT22;9495;51.210;2.934;2023-02-18T05:12:06;13.00;99.90
18733;DHT22;9495;51.210;2.934;2023-02-18T05:14:34;12.80;99.90
18733;DHT22;9495;51.210;2.934;2023-02-18T05:17:03;12.40;99.90
18733;DHT22;9495;51.210;2.934;2023-02-18T05:19:31;13.00;99.90
18733;DHT22;9495;51.210;2.934;2023-02-18T05:22:01;12.90;99.90
18733;DHT22;9495;51.210;2.934;2023-02-18T05:24:30;12.90;99.90
18733;DHT22;9495;51.210;2.934;2023-02-18T05:26:58;12.90;99.90
18733;DHT22;9495;51.210;2.934;2023-02-18T05:29:27;13.10;99.90
18733;DHT22;9495;51.210;2.934;2023-02-18T05:31:55;12.90;99.90
18733;DHT22;9495;51.210;2.934;2023-02-18T05:34:24;12.80;99.90
18733;DHT22;9495;51.210;2.934;2023-02-18T05:36:52;13.20;99.90
18733;DHT22;9495;51.210;2.934;2023-02-18T05:39:22;13.10;99.90
18733;DHT22;9495;51.210;2.934;2023-02-18T05:41:50;13.10;99.90
18733;DHT22;9495;51.210;2.934;2023-02-18T05:44:19;13.10;99.90
18733;DHT22;9495;51.210;2.934;2023-02-18T05:47:01;13.00;99.90
18733;DHT22;9495;51.210;2.934;2023-02-18T05:49:31;13.10;99.90
18733;DHT22;9495;51.210;2.934;2023-02-18T05:52:00;13.20;99.90
18733;DHT22;9495;51.210;2.934;2023-02-18T05:54:30;13.10;99.90
18733;DHT22;9495;51.210;2.934;2023-02-18T05:56:58;13.10;99.90
18733;DHT22;9495;51.210;2.934;2023-02-18T05:59:27;12.80;99.90
18733;DHT22;9495;51.210;2.934;2023-02-18T06:01:55;13.00;99.90
18733;DHT22;9495;51.210;2.934;2023-02-18T06:04:23;13.10;99.90
18733;DHT22;9495;51.210;2.934;2023-02-18T06:06:52;13.00;99.90
18733;DHT22;9495;51.210;2.934;2023-02-18T06:09:20;13.20;99.90
18733;DHT22;9495;51.210;2.934;2023-02-18T06:11:50;12.70;99.90
18733;DHT22;9495;51.210;2.934;2023-02-18T06:14:18;12.80;99.90
18733;DHT22;9495;51.210;2.934;2023-02-18T06:16:47;12.90;99.90
18733;DHT22;9495;51.210;2.934;2023-02-18T06:19:16;12.50;99.90
18733;DHT22;9495;51.210;2.934;2023-02-18T06:21:44;12.20;99.90
18733;DHT22;9495;51.210;2.934;2023-02-18T06:24:13;12.50;99.90
18733;DHT22;9495;51.210;2.934;2023-02-18T06:26:41;12.40;99.90
18733;DHT22;9495;51.210;2.934;2023-02-18T06:29:11;12.50;99.90
18733;DHT22;9495;51.210;2.934;2023-02-18T06:31:39;12.50;99.90
18733;DHT22;9495;51.210;2.934;2023-02-18T06:34:08;12.40;99.90
18733;DHT22;9495;51.210;2.934;2023-02-18T06:36:36;12.50;99.90
18733;DHT22;9495;51.210;2.934;2023-02-18T06:39:05;12.30;99.90
18733;DHT22;9495;51.210;2.934;2023-02-18T06:41:34;12.70;99.90
18733;DHT22;9495;51.210;2.934;2023-02-18T06:44:02;12.60;99.90
18733;DHT22;9495;51.210;2.934;2023-02-18T06:46:32;12.50;99.90
18733;DHT22;9495;51.210;2.934;2023-02-18T06:49:01;12.70;99.90
18733;DHT22;9495;51.210;2.934;2023-02-18T06:51:29;12.90;99.90
18733;DHT22;9495;51.210;2.934;2023-02-18T06:53:58;12.90;99.90
18733;DHT22;9495;51.210;2.934;2023-02-18T06:56:26;12.70;99.90
18733;DHT22;9495;51.210;2.934;2023-02-18T06:58:57;12.80;99.90
18733;DHT22;9495;51.210;2.934;2023-02-18T07:01:25;12.90;99.90
18733;DHT22;9495;51.210;2.934;2023-02-18T07:03:55;12.80;99.90
18733;DHT22;9495;51.210;2.934;2023-02-18T07:06:23;12.90;99.90
18733;DHT22;9495;51.210;2.934;2023-02-18T07:08:52;12.60;99.90
18733;DHT22;9495;51.210;2.934;2023-02-18T07:11:20;12.70;99.90
18733;DHT22;9495;51.210;2.934;2023-02-18T07:13:49;12.30;99.90
18733;DHT22;9495;51.210;2.934;2023-02-18T07:16:17;12.50;99.90
18733;DHT22;9495;51.210;2.934;2023-02-18T07:18:46;12.40;99.90
18733;DHT22;9495;51.210;2.934;2023-02-18T07:21:15;13.00;99.90
18733;DHT22;9495;51.210;2.934;2023-02-18T07:23:44;13.20;99.90
18733;DHT22;9495;51.210;2.934;2023-02-18T07:26:13;12.80;99.90
18733;DHT22;9495;51.210;2.934;2023-02-18T07:28:41;12.80;99.90
18733;DHT22;9495;51.210;2.934;2023-02-18T07:31:10;12.90;99.90
18733;DHT22;9495;51.210;2.934;2023-02-18T07:33:39;12.80;99.90
18733;DHT22;9495;51.210;2.934;2023-02-18T07:36:08;12.90;99.90
18733;DHT22;9495;51.210;2.934;2023-02-18T07:38:38;12.90;99.90
18733;DHT22;9495;51.210;2.934;2023-02-18T07:41:20;13.20;99.90
18733;DHT22;9495;51.210;2.934;2023-02-18T07:43:49;12.90;99.90
18733;DHT22;9495;51.210;2.934;2023-02-18T07:46:17;13.20;99.90
18733;DHT22;9495;51.210;2.934;2023-02-18T07:48:46;13.20;99.90
18733;DHT22;9495;51.210;2.934;2023-02-18T07:51:14;13.30;99.90
18733;DHT22;9495;51.210;2.934;2023-02-18T07:53:44;12.90;99.90
18733;DHT22;9495;51.210;2.934;2023-02-18T07:56:12;13.20;99.90
18733;DHT22;9495;51.210;2.934;2023-02-18T07:58:41;12.90;99.90
18733;DHT22;9495;51.210;2.934;2023-02-18T08:01:11;13.40;99.90
18733;DHT22;9495;51.210;2.934;2023-02-18T08:03:41;13.40;99.90
18733;DHT22;9495;51.210;2.934;2023-02-18T08:06:20;13.20;99.90
18733;DHT22;9495;51.210;2.934;2023-02-18T08:08:50;13.60;99.90
18733;DHT22;9495;51.210;2.934;2023-02-18T08:11:19;13.60;99.90
18733;DHT22;9495;51.210;2.934;2023-02-18T08:13:48;13.40;99.90
18733;DHT22;9495;51.210;2.934;2023-02-18T08:16:18;13.20;99.90
18733;DHT22;9495;51.210;2.934;2023-02-18T08:18:47;13.70;99.90
18733;DHT22;9495;51.210;2.934;2023-02-18T08:21:17;13.50;99.90
18733;DHT22;9495;51.210;2.934;2023-02-18T08:23:46;13.50;99.90
18733;DHT22;9495;51.210;2.934;2023-02-18T08:26:17;13.50;99.90
18733;DHT22;9495;51.210;2.934;2023-02-18T08:28:47;13.50;99.90
18733;DHT22;9495;51.210;2.934;2023-02-18T08:31:17;13.10;99.90
18733;DHT22;9495;51.210;2.934;2023-02-18T08:33:46;13.60;99.90
18733;DHT22;9495;51.210;2.934;2023-02-18T08:36:15;13.30;99.90
18733;DHT22;9495;51.210;2.934;2023-02-18T08:38:43;13.50;99.90
18733;DHT22;9495;51.210;2.934;2023-02-18T08:41:12;13.80;99.90
18733;DHT22;9495;51.210;2.934;2023-02-18T08:43:42;13.70;99.90
18733;DHT22;9495;51.210;2.934;2023-02-18T08:46:11;13.60;99.90
18733;DHT22;9495;51.210;2.934;2023-02-18T08:48:51;13.80;99.90
18733;DHT22;9495;51.210;2.934;2023-02-18T08:51:21;13.50;99.90
18733;DHT22;9495;51.210;2.934;2023-02-18T08:53:50;13.40;99.90
18733;DHT22;9495;51.210;2.934;2023-02-18T08:56:18;13.70;99.90
18733;DHT22;9495;51.210;2.934;2023-02-18T08:58:48;13.20;99.90
18733;DHT22;9495;51.210;2.934;2023-02-18T09:01:17;13.20;99.90
18733;DHT22;9495;51.210;2.934;2023-02-18T09:03:47;13.70;99.90
18733;DHT22;9495;51.210;2.934;2023-02-18T09:06:15;13.80;99.90
18733;DHT22;9495;51.210;2.934;2023-02-18T09:08:44;13.80;99.90
18733;DHT22;9495;51.210;2.934;2023-02-18T09:11:12;13.70;99.90
18733;DHT22;9495;51.210;2.934;2023-02-18T09:13:41;13.80;99.90
18733;DHT22;9495;51.210;2.934;2023-02-18T09:16:13;13.70;99.90
18733;DHT22;9495;51.210;2.934;2023-02-18T09:18:45;14.00;99.90
18733;DHT22;9495;51.210;2.934;2023-02-18T09:21:14;14.10;99.90
18733;DHT22;9495;51.210;2.934;2023-02-18T09:23:44;14.00;99.90
18733;DHT22;9495;51.210;2.934;2023-02-18T09:26:14;14.10;99.90
18733;DHT22;9495;51.210;2.934;2023-02-18T09:28:43;13.50;99.90
18733;DHT22;9495;51.210;2.934;2023-02-18T09:31:15;13.70;99.90
18733;DHT22;9495;51.210;2.934;2023-02-18T09:33:45;13.60;99.90
18733;DHT22;9495;51.210;2.934;2023-02-18T09:36:14;13.50;99.90
18733;DHT22;9495;51.210;2.934;2023-02-18T09:38:43;13.10;99.90
18733;DHT22;9495;51.210;2.934;2023-02-18T09:41:18;13.10;99.90
18733;DHT22;9495;51.210;2.934;2023-02-18T09:43:53;13.40;99.90
18733;DHT22;9495;51.210;2.934;2023-02-18T09:46:27;13.60;99.90
18733;DHT22;9495;51.210;2.934;2023-02-18T09:48:57;13.70;99.90
18733;DHT22;9495;51.210;2.934;2023-02-18T09:51:27;13.40;99.90
18733;DHT22;9495;51.210;2.934;2023-02-18T09:53:56;13.60;99.90
18733;DHT22;9495;51.210;2.934;2023-02-18T09:56:27;13.60;99.90
18733;DHT22;9495;51.210;2.934;2023-02-18T09:58:59;13.50;99.90
18733;DHT22;9495;51.210;2.934;2023-02-18T10:01:33;13.20;99.90
18733;DHT22;9495;51.210;2.934;2023-02-18T10:04:06;13.30;99.90
18733;DHT22;9495;51.210;2.934;2023-02-18T10:06:37;13.40;99.90
18733;DHT22;9495;51.210;2.934;2023-02-18T10:09:16;13.20;99.90
18733;DHT22;9495;51.210;2.934;2023-02-18T10:11:47;13.10;99.90
18733;DHT22;9495;51.210;2.934;2023-02-18T10:14:17;13.00;99.90
18733;DHT22;9495;51.210;2.934;2023-02-18T10:16:48;13.40;99.90
18733;DHT22;9495;51.210;2.934;2023-02-18T10:19:23;13.70;99.90
18733;DHT22;9495;51.210;2.934;2023-02-18T10:21:54;13.60;99.90
18733;DHT22;9495;51.210;2.934;2023-02-18T10:24:29;13.70;99.90
18733;DHT22;9495;51.210;2.934;2023-02-18T10:26:58;13.00;99.90
18733;DHT22;9495;51.210;2.934;2023-02-18T10:29:27;12.70;99.90
18733;DHT22;9495;51.210;2.934;2023-02-18T10:32:05;12.70;99.90
18733;DHT22;9495;51.210;2.934;2023-02-18T10:34:41;13.10;99.90
18733;DHT22;9495;51.210;2.934;2023-02-18T10:37:34;13.20;99.90
18733;DHT22;9495;51.210;2.934;2023-02-18T10:40:10;13.10;99.90
18733;DHT22;9495;51.210;2.934;2023-02-18T10:42:48;13.50;99.90
18733;DHT22;9495;51.210;2.934;2023-02-18T10:45:25;13.60;99.90
18733;DHT22;9495;51.210;2.934;2023-02-18T10:48:13;13.50;99.90
18733;DHT22;9495;51.210;2.934;2023-02-18T10:50:45;13.20;99.90
18733;DHT22;9495;51.210;2.934;2023-02-18T10:53:17;13.20;99.90
18733;DHT22;9495;51.210;2.934;2023-02-18T10:55:46;13.50;99.90
18733;DHT22;9495;51.210;2.934;2023-02-18T10:58:34;13.30;99.90
18733;DHT22;9495;51.210;2.934;2023-02-18T11:01:05;13.00;99.90
18733;DHT22;9495;51.210;2.934;2023-02-18T11:03:41;13.00;99.90
18733;DHT22;9495;51.210;2.934;2023-02-18T11:06:20;13.30;99.90
18733;DHT22;9495;51.210;2.934;2023-02-18T11:08:49;12.90;99.90
18733;DHT22;9495;51.210;2.934;2023-02-18T11:11:23;12.80;99.90
18733;DHT22;9495;51.210;2.934;2023-02-18T11:13:53;12.70;99.90
18733;DHT22;9495;51.210;2.934;2023-02-18T11:16:23;13.00;99.90
18733;DHT22;9495;51.210;2.934;2023-02-18T11:18:52;13.10;99.90
18733;DHT22;9495;51.210;2.934;2023-02-18T11:21:28;13.20;99.90
18733;DHT22;9495;51.210;2.934;2023-02-18T11:23:57;13.30;99.90
18733;DHT22;9495;51.210;2.934;2023-02-18T11:26:34;13.40;99.90
18733;DHT22;9495;51.210;2.934;2023-02-18T11:29:06;13.00;99.90
18733;DHT22;9495;51.210;2.934;2023-02-18T11:31:41;12.60;99.90
18733;DHT22;9495;51.210;2.934;2023-02-18T11:34:17;13.30;99.90
18733;DHT22;9495;51.210;2.934;2023-02-18T11:36:47;13.70;99.90
18733;DHT22;9495;51.210;2.934;2023-02-18T11:39:21;13.70;99.90
18733;DHT22;9495;51.210;2.934;2023-02-18T11:41:54;13.40;99.90
18733;DHT22;9495;51.210;2.934;2023-02-18T11:44:27;13.60;99.90
18733;DHT22;9495;51.210;2.934;2023-02-18T11:46:59;13.50;99.90
18733;DHT22;9495;51.210;2.934;2023-02-18T11:49:30;13.40;99.90
18733;DHT22;9495;51.210;2.934;2023-02-18T11:52:05;13.20;99.90
18733;DHT22;9495;51.210;2.934;2023-02-18T11:54:37;13.30;99.90
18733;DHT22;9495;51.210;2.934;2023-02-18T11:57:10;13.20;99.90
18733;DHT22;9495;51.210;2.934;2023-02-18T11:59:40;13.10;99.90
18733;DHT22;9495;51.210;2.934;2023-02-18T12:02:25;13.60;99.90
18733;DHT22;9495;51.210;2.934;2023-02-18T12:05:00;13.40;99.90
18733;DHT22;9495;51.210;2.934;2023-02-18T12:07:41;13.20;99.90
18733;DHT22;9495;51.210;2.934;2023-02-18T12:10:13;13.40;99.90
18733;DHT22;9495;51.210;2.934;2023-02-18T12:12:46;13.80;99.90
18733;DHT22;9495;51.210;2.934;2023-02-18T12:15:17;13.40;99.90
18733;DHT22;9495;51.210;2.934;2023-02-18T12:18:04;13.40;99.90
18733;DHT22;9495;51.210;2.934;2023-02-18T12:20:59;13.30;99.90
18733;DHT22;9495;51.210;2.934;2023-02-18T12:23:36;13.50;99.90
18733;DHT22;9495;51.210;2.934;2023-02-18T12:26:20;13.90;99.90
18733;DHT22;9495;51.210;2.934;2023-02-18T12:29:00;13.50;99.90
18733;DHT22;9495;51.210;2.934;2023-02-18T12:31:57;13.70;99.90
18733;DHT22;9495;51.210;2.934;2023-02-18T12:37:41;13.90;99.90
18733;DHT22;9495;51.210;2.934;2023-02-18T12:40:32;14.00;99.90
18733;DHT22;9495;51.210;2.934;2023-02-18T12:43:08;14.00;99.90
18733;DHT22;9495;51.210;2.934;2023-02-18T12:45:55;14.10;99.90
18733;DHT22;9495;51.210;2.934;2023-02-18T12:48:46;14.10;99.90
18733;DHT22;9495;51.210;2.934;2023-02-18T12:51:28;14.10;99.90
18733;DHT22;9495;51.210;2.934;2023-02-18T12:54:24;14.60;99.90
18733;DHT22;9495;51.210;2.934;2023-02-18T12:57:21;14.10;99.90
18733;DHT22;9495;51.210;2.934;2023-02-18T13:00:21;14.30;99.90
18733;DHT22;9495;51.210;2.934;2023-02-18T13:03:25;14.30;99.90
18733;DHT22;9495;51.210;2.934;2023-02-18T13:06:01;14.60;99.90
18733;DHT22;9495;51.210;2.934;2023-02-18T13:08:45;14.50;99.90
18733;DHT22;9495;51.210;2.934;2023-02-18T13:11:26;14.40;99.90
18733;DHT22;9495;51.210;2.934;2023-02-18T13:14:01;14.50;99.90
18733;DHT22;9495;51.210;2.934;2023-02-18T13:16:31;14.50;99.90
18733;DHT22;9495;51.210;2.934;2023-02-18T13:19:05;14.50;99.90
18733;DHT22;9495;51.210;2.934;2023-02-18T13:21:37;14.70;99.90
18733;DHT22;9495;51.210;2.934;2023-02-18T13:24:10;14.80;99.90
18733;DHT22;9495;51.210;2.934;2023-02-18T13:26:43;14.80;99.90
18733;DHT22;9495;51.210;2.934;2023-02-18T13:29:20;14.60;99.90
18733;DHT22;9495;51.210;2.934;2023-02-18T13:32:00;14.30;99.90
18733;DHT22;9495;51.210;2.934;2023-02-18T13:34:36;14.50;99.90
18733;DHT22;9495;51.210;2.934;2023-02-18T13:37:15;14.40;99.90
18733;DHT22;9495;51.210;2.934;2023-02-18T13:39:49;14.50;99.90
18733;DHT22;9495;51.210;2.934;2023-02-18T13:42:33;14.60;99.90
18733;DHT22;9495;51.210;2.934;2023-02-18T13:45:24;14.60;99.90
18733;DHT22;9495;51.210;2.934;2023-02-18T13:47:53;14.50;99.90
18733;DHT22;9495;51.210;2.934;2023-02-18T13:50:28;14.60;99.90
18733;DHT22;9495;51.210;2.934;2023-02-18T13:53:11;14.40;99.90
18733;DHT22;9495;51.210;2.934;2023-02-18T13:55:45;14.50;99.90
18733;DHT22;9495;51.210;2.934;2023-02-18T13:58:20;14.70;99.90
18733;DHT22;9495;51.210;2.934;2023-02-18T14:00:52;14.50;99.90
18733;DHT22;9495;51.210;2.934;2023-02-18T14:03:48;14.70;99.90
18733;DHT22;9495;51.210;2.934;2023-02-18T14:06:19;14.70;99.90
18733;DHT22;9495;51.210;2.934;2023-02-18T14:08:48;14.70;99.90
18733;DHT22;9495;51.210;2.934;2023-02-18T14:11:33;14.50;99.90
18733;DHT22;9495;51.210;2.934;2023-02-18T14:14:30;14.20;99.90
18733;DHT22;9495;51.210;2.934;2023-02-18T14:22:59;14.20;99.90
18733;DHT22;9495;51.210;2.934;2023-02-18T14:25:35;14.50;99.90
18733;DHT22;9495;51.210;2.934;2023-02-18T14:28:35;14.40;99.90
18733;DHT22;9495;51.210;2.934;2023-02-18T14:31:22;14.50;99.90
18733;DHT22;9495;51.210;2.934;2023-02-18T14:37:25;14.50;99.90
18733;DHT22;9495;51.210;2.934;2023-02-18T14:40:01;14.20;99.90
18733;DHT22;9495;51.210;2.934;2023-02-18T14:42:40;14.50;99.90
18733;DHT22;9495;51.210;2.934;2023-02-18T14:45:22;14.50;99.90
18733;DHT22;9495;51.210;2.934;2023-02-18T14:48:19;14.20;99.90
18733;DHT22;9495;51.210;2.934;2023-02-18T14:50:52;14.20;99.90
18733;DHT22;9495;51.210;2.934;2023-02-18T14:53:24;13.90;99.90
18733;DHT22;9495;51.210;2.934;2023-02-18T14:55:54;13.70;99.90
18733;DHT22;9495;51.210;2.934;2023-02-18T14:58:30;14.10;99.90
18733;DHT22;9495;51.210;2.934;2023-02-18T15:01:06;14.10;99.90
18733;DHT22;9495;51.210;2.934;2023-02-18T15:03:39;14.10;99.90
18733;DHT22;9495;51.210;2.934;2023-02-18T15:06:22;14.30;99.90
18733;DHT22;9495;51.210;2.934;2023-02-18T15:08:51;14.20;99.90
18733;DHT22;9495;51.210;2.934;2023-02-18T15:11:21;14.20;99.90
18733;DHT22;9495;51.210;2.934;2023-02-18T15:13:51;14.30;99.90
18733;DHT22;9495;51.210;2.934;2023-02-18T15:16:25;14.50;99.90
18733;DHT22;9495;51.210;2.934;2023-02-18T15:19:00;14.40;99.90
18733;DHT22;9495;51.210;2.934;2023-02-18T15:21:31;14.30;99.90
18733;DHT22;9495;51.210;2.934;2023-02-18T15:24:05;13.90;99.90
18733;DHT22;9495;51.210;2.934;2023-02-18T15:26:35;13.80;99.90
18733;DHT22;9495;51.210;2.934;2023-02-18T15:29:04;13.60;99.90
18733;DHT22;9495;51.210;2.934;2023-02-18T15:31:37;13.90;99.90
18733;DHT22;9495;51.210;2.934;2023-02-18T15:34:29;13.80;99.90
18733;DHT22;9495;51.210;2.934;2023-02-18T15:36:59;13.80;99.90
18733;DHT22;9495;51.210;2.934;2023-02-18T15:39:28;13.80;99.90
18733;DHT22;9495;51.210;2.934;2023-02-18T15:42:00;14.10;99.90
18733;DHT22;9495;51.210;2.934;2023-02-18T15:44:32;13.80;99.90
18733;DHT22;9495;51.210;2.934;2023-02-18T15:47:05;13.80;99.90
18733;DHT22;9495;51.210;2.934;2023-02-18T15:49:37;13.70;99.90
18733;DHT22;9495;51.210;2.934;2023-02-18T15:52:07;13.70;99.90
18733;DHT22;9495;51.210;2.934;2023-02-18T15:54:38;13.60;99.90
18733;DHT22;9495;51.210;2.934;2023-02-18T15:57:11;13.50;99.90
18733;DHT22;9495;51.210;2.934;2023-02-18T15:59:44;13.70;99.90
18733;DHT22;9495;51.210;2.934;2023-02-18T16:02:18;13.50;99.90
18733;DHT22;9495;51.210;2.934;2023-02-18T16:04:51;13.90;99.90
18733;DHT22;9495;51.210;2.934;2023-02-18T16:07:23;13.50;99.90
18733;DHT22;9495;51.210;2.934;2023-02-18T16:10:13;13.50;99.90
18733;DHT22;9495;51.210;2.934;2023-02-18T16:12:44;13.40;99.90
18733;DHT22;9495;51.210;2.934;2023-02-18T16:15:18;13.30;99.90
18733;DHT22;9495;51.210;2.934;2023-02-18T16:17:49;13.40;99.90
18733;DHT22;9495;51.210;2.934;2023-02-18T16:20:26;13.20;99.90
18733;DHT22;9495;51.210;2.934;2023-02-18T16:22:59;13.10;99.90
18733;DHT22;9495;51.210;2.934;2023-02-18T16:25:39;13.30;99.90
18733;DHT22;9495;51.210;2.934;2023-02-18T16:28:12;13.30;99.90
18733;DHT22;9495;51.210;2.934;2023-02-18T16:30:43;13.50;99.90
18733;DHT22;9495;51.210;2.934;2023-02-18T16:33:12;13.50;99.90
18733;DHT22;9495;51.210;2.934;2023-02-18T16:35:42;13.40;99.90
18733;DHT22;9495;51.210;2.934;2023-02-18T16:38:18;13.30;99.90
18733;DHT22;9495;51.210;2.934;2023-02-18T16:40:47;13.70;99.90